sensor_id;sensor_type;location;lat;lon;timestamp;P1;durP1;ratioP1;P2;durP2;ratioP2
78156;SDS011;67400;49.360;8.266;2023-04-03T00:00:06;2.92;;;2.28;;
78156;SDS011;67400;49.360;8.266;2023-04-03T00:01:26;12.07;;;2.20;;
78156;SDS011;67400;49.360;8.266;2023-04-03T00:02:46;2.60;;;2.00;;
78156;SDS011;67400;49.360;8.266;2023-04-03T00:04:06;4.13;;;2.05;;
78156;SDS011;67400;49.360;8.266;2023-04-03T00:05:26;3.28;;;1.67;;
78156;SDS011;67400;49.360;8.266;2023-04-03T00:06:45;4.10;;;2.30;;
78156;SDS011;67400;49.360;8.266;2023-04-03T00:08:04;2.35;;;1.75;;
78156;SDS011;67400;49.360;8.266;2023-04-03T00:09:26;4.15;;;2.25;;
78156;SDS011;67400;49.360;8.266;2023-04-03T00:10:46;3.47;;;1.90;;
78156;SDS011;67400;49.360;8.266;2023-04-03T00:12:06;3.40;;;2.05;;
78156;SDS011;67400;49.360;8.266;2023-04-03T00:13:25;2.90;;;2.20;;
78156;SDS011;67400;49.360;8.266;2023-04-03T00:14:45;2.83;;;2.08;;
78156;SDS011;67400;49.360;8.266;2023-04-03T00:16:06;5.13;;;2.03;;
78156;SDS011;67400;49.360;8.266;2023-04-03T00:17:25;3.53;;;2.03;;
78156;SDS011;67400;49.360;8.266;2023-04-03T00:18:45;4.85;;;2.40;;
78156;SDS011;67400;49.360;8.266;2023-04-03T00:20:04;4.35;;;2.20;;
78156;SDS011;67400;49.360;8.266;2023-04-03T00:21:24;5.30;;;2.40;;
78156;SDS011;67400;49.360;8.266;2023-04-03T00:22:44;4.22;;;2.00;;
78156;SDS011;67400;49.360;8.266;2023-04-03T00:24:04;3.45;;;2.15;;
78156;SDS011;67400;49.360;8.266;2023-04-03T00:25:24;3.72;;;1.92;;
78156;SDS011;67400;49.360;8.266;2023-04-03T00:26:44;6.07;;;2.38;;
78156;SDS011;67400;49.360;8.266;2023-04-03T00:28:03;5.20;;;2.33;;
78156;SDS011;67400;49.360;8.266;2023-04-03T00:29:23;4.82;;;2.42;;
78156;SDS011;67400;49.360;8.266;2023-04-03T00:30:43;3.25;;;2.08;;
78156;SDS011;67400;49.360;8.266;2023-04-03T00:32:03;6.68;;;2.38;;
78156;SDS011;67400;49.360;8.266;2023-04-03T00:33:23;2.55;;;1.90;;
78156;SDS011;67400;49.360;8.266;2023-04-03T00:34:43;7.07;;;2.05;;
78156;SDS011;67400;49.360;8.266;2023-04-03T00:36:06;6.68;;;2.42;;
78156;SDS011;67400;49.360;8.266;2023-04-03T00:37:27;3.60;;;2.40;;
78156;SDS011;67400;49.360;8.266;2023-04-03T00:38:47;4.18;;;2.70;;
78156;SDS011;67400;49.360;8.266;2023-04-03T00:40:07;2.85;;;2.38;;
78156;SDS011;67400;49.360;8.266;2023-04-03T00:41:27;3.28;;;1.98;;
78156;SDS011;67400;49.360;8.266;2023-04-03T00:42:48;3.83;;;2.17;;
78156;SDS011;67400;49.360;8.266;2023-04-03T00:44:21;6.68;;;2.33;;
78156;SDS011;67400;49.360;8.266;2023-04-03T00:45:44;2.67;;;2.17;;
78156;SDS011;67400;49.360;8.266;2023-04-03T00:47:07;3.00;;;2.22;;
78156;SDS011;67400;49.360;8.266;2023-04-03T00:48:29;3.10;;;2.20;;
78156;SDS011;67400;49.360;8.266;2023-04-03T00:49:50;5.43;;;3.22;;
78156;SDS011;67400;49.360;8.266;2023-04-03T00:51:11;3.22;;;2.05;;
78156;SDS011;67400;49.360;8.266;2023-04-03T00:52:32;6.78;;;2.33;;
78156;SDS011;67400;49.360;8.266;2023-04-03T00:53:54;3.83;;;2.00;;
78156;SDS011;67400;49.360;8.266;2023-04-03T00:55:15;3.30;;;2.10;;
78156;SDS011;67400;49.360;8.266;2023-04-03T00:56:35;2.53;;;2.00;;
78156;SDS011;67400;49.360;8.266;2023-04-03T00:57:55;3.70;;;2.03;;
78156;SDS011;67400;49.360;8.266;2023-04-03T00:59:23;5.30;;;2.13;;
78156;SDS011;67400;49.360;8.266;2023-04-03T01:00:46;4.78;;;2.40;;
78156;SDS011;67400;49.360;8.266;2023-04-03T01:02:07;8.25;;;2.70;;
78156;SDS011;67400;49.360;8.266;2023-04-03T01:03:27;3.55;;;2.25;;
78156;SDS011;67400;49.360;8.266;2023-04-03T01:04:47;4.63;;;2.30;;
78156;SDS011;67400;49.360;8.266;2023-04-03T01:06:07;3.38;;;2.17;;
78156;SDS011;67400;49.360;8.266;2023-04-03T01:07:29;4.15;;;2.22;;
78156;SDS011;67400;49.360;8.266;2023-04-03T01:08:49;4.72;;;2.08;;
78156;SDS011;67400;49.360;8.266;2023-04-03T01:10:10;4.40;;;2.30;;
78156;SDS011;67400;49.360;8.266;2023-04-03T01:11:32;5.43;;;2.40;;
78156;SDS011;67400;49.360;8.266;2023-04-03T01:12:53;3.92;;;2.45;;
78156;SDS011;67400;49.360;8.266;2023-04-03T01:14:13;8.80;;;2.90;;
78156;SDS011;67400;49.360;8.266;2023-04-03T01:15:33;4.18;;;2.30;;
78156;SDS011;67400;49.360;8.266;2023-04-03T01:16:53;3.80;;;2.45;;
78156;SDS011;67400;49.360;8.266;2023-04-03T01:18:13;6.95;;;2.35;;
78156;SDS011;67400;49.360;8.266;2023-04-03T01:19:33;5.78;;;2.00;;
78156;SDS011;67400;49.360;8.266;2023-04-03T01:21:01;4.43;;;2.33;;
78156;SDS011;67400;49.360;8.266;2023-04-03T01:22:29;3.28;;;2.00;;
78156;SDS011;67400;49.360;8.266;2023-04-03T01:25:10;3.50;;;1.95;;
78156;SDS011;67400;49.360;8.266;2023-04-03T01:26:30;7.00;;;1.90;;
78156;SDS011;67400;49.360;8.266;2023-04-03T01:27:50;4.90;;;2.10;;
78156;SDS011;67400;49.360;8.266;2023-04-03T01:29:09;2.97;;;1.90;;
78156;SDS011;67400;49.360;8.266;2023-04-03T01:30:31;3.28;;;2.03;;
78156;SDS011;67400;49.360;8.266;2023-04-03T01:32:01;6.65;;;2.30;;
78156;SDS011;67400;49.360;8.266;2023-04-03T01:33:22;2.70;;;1.90;;
78156;SDS011;67400;49.360;8.266;2023-04-03T01:34:42;4.43;;;1.90;;
78156;SDS011;67400;49.360;8.266;2023-04-03T01:36:02;5.05;;;2.28;;
78156;SDS011;67400;49.360;8.266;2023-04-03T01:37:22;3.80;;;2.20;;
78156;SDS011;67400;49.360;8.266;2023-04-03T01:38:42;3.90;;;2.22;;
78156;SDS011;67400;49.360;8.266;2023-04-03T01:40:02;5.00;;;2.25;;
78156;SDS011;67400;49.360;8.266;2023-04-03T01:41:22;4.32;;;2.40;;
78156;SDS011;67400;49.360;8.266;2023-04-03T01:42:44;3.50;;;2.15;;
78156;SDS011;67400;49.360;8.266;2023-04-03T01:44:05;3.72;;;2.50;;
78156;SDS011;67400;49.360;8.266;2023-04-03T01:45:24;3.75;;;2.20;;
78156;SDS011;67400;49.360;8.266;2023-04-03T01:46:44;5.40;;;2.10;;
78156;SDS011;67400;49.360;8.266;2023-04-03T01:48:04;4.70;;;2.70;;
78156;SDS011;67400;49.360;8.266;2023-04-03T01:49:24;4.20;;;2.65;;
78156;SDS011;67400;49.360;8.266;2023-04-03T01:50:43;5.00;;;2.53;;
78156;SDS011;67400;49.360;8.266;2023-04-03T01:52:03;6.95;;;2.78;;
78156;SDS011;67400;49.360;8.266;2023-04-03T01:53:23;4.38;;;2.97;;
78156;SDS011;67400;49.360;8.266;2023-04-03T01:54:42;3.40;;;2.83;;
78156;SDS011;67400;49.360;8.266;2023-04-03T01:56:03;5.72;;;3.00;;
78156;SDS011;67400;49.360;8.266;2023-04-03T01:57:24;5.72;;;2.78;;
78156;SDS011;67400;49.360;8.266;2023-04-03T01:58:44;4.28;;;2.65;;
78156;SDS011;67400;49.360;8.266;2023-04-03T02:00:04;4.10;;;2.78;;
78156;SDS011;67400;49.360;8.266;2023-04-03T02:01:31;4.45;;;2.67;;
78156;SDS011;67400;49.360;8.266;2023-04-03T02:02:51;3.70;;;2.67;;
78156;SDS011;67400;49.360;8.266;2023-04-03T02:04:11;4.93;;;2.83;;
78156;SDS011;67400;49.360;8.266;2023-04-03T02:05:31;5.43;;;3.42;;
78156;SDS011;67400;49.360;8.266;2023-04-03T02:06:50;6.13;;;3.35;;
78156;SDS011;67400;49.360;8.266;2023-04-03T02:08:10;5.70;;;3.13;;
78156;SDS011;67400;49.360;8.266;2023-04-03T02:09:30;3.85;;;2.60;;
78156;SDS011;67400;49.360;8.266;2023-04-03T02:10:50;4.88;;;3.05;;
78156;SDS011;67400;49.360;8.266;2023-04-03T02:12:10;5.50;;;3.05;;
78156;SDS011;67400;49.360;8.266;2023-04-03T02:13:30;5.25;;;3.10;;
78156;SDS011;67400;49.360;8.266;2023-04-03T02:14:49;4.25;;;2.95;;
78156;SDS011;67400;49.360;8.266;2023-04-03T02:16:09;5.13;;;3.00;;
78156;SDS011;67400;49.360;8.266;2023-04-03T02:17:29;4.30;;;2.72;;
78156;SDS011;67400;49.360;8.266;2023-04-03T02:18:49;6.05;;;3.33;;
78156;SDS011;67400;49.360;8.266;2023-04-03T02:20:09;6.00;;;2.95;;
78156;SDS011;67400;49.360;8.266;2023-04-03T02:21:29;4.32;;;3.33;;
78156;SDS011;67400;49.360;8.266;2023-04-03T02:22:49;4.30;;;3.13;;
78156;SDS011;67400;49.360;8.266;2023-04-03T02:24:09;5.40;;;3.20;;
78156;SDS011;67400;49.360;8.266;2023-04-03T02:25:30;4.20;;;2.85;;
78156;SDS011;67400;49.360;8.266;2023-04-03T02:26:50;8.73;;;3.45;;
78156;SDS011;67400;49.360;8.266;2023-04-03T02:28:09;4.55;;;3.05;;
78156;SDS011;67400;49.360;8.266;2023-04-03T02:29:29;5.88;;;3.47;;
78156;SDS011;67400;49.360;8.266;2023-04-03T02:30:49;7.00;;;3.50;;
78156;SDS011;67400;49.360;8.266;2023-04-03T02:32:09;8.23;;;3.42;;
78156;SDS011;67400;49.360;8.266;2023-04-03T02:33:29;7.13;;;3.38;;
78156;SDS011;67400;49.360;8.266;2023-04-03T02:34:49;5.22;;;3.33;;
78156;SDS011;67400;49.360;8.266;2023-04-03T02:36:09;6.32;;;3.42;;
78156;SDS011;67400;49.360;8.266;2023-04-03T02:37:31;6.40;;;3.95;;
78156;SDS011;67400;49.360;8.266;2023-04-03T02:38:51;5.75;;;3.17;;
78156;SDS011;67400;49.360;8.266;2023-04-03T02:40:10;5.68;;;3.42;;
78156;SDS011;67400;49.360;8.266;2023-04-03T02:41:30;5.95;;;3.35;;
78156;SDS011;67400;49.360;8.266;2023-04-03T02:43:01;5.50;;;3.58;;
78156;SDS011;67400;49.360;8.266;2023-04-03T02:44:21;6.45;;;3.63;;
78156;SDS011;67400;49.360;8.266;2023-04-03T02:45:42;7.72;;;3.95;;
78156;SDS011;67400;49.360;8.266;2023-04-03T02:47:01;7.70;;;3.88;;
78156;SDS011;67400;49.360;8.266;2023-04-03T02:48:21;9.10;;;3.60;;
78156;SDS011;67400;49.360;8.266;2023-04-03T02:49:41;6.18;;;3.20;;
78156;SDS011;67400;49.360;8.266;2023-04-03T02:51:03;6.03;;;3.35;;
78156;SDS011;67400;49.360;8.266;2023-04-03T02:52:23;6.28;;;3.50;;
78156;SDS011;67400;49.360;8.266;2023-04-03T02:53:45;5.70;;;3.67;;
78156;SDS011;67400;49.360;8.266;2023-04-03T02:55:12;10.32;;;3.50;;
78156;SDS011;67400;49.360;8.266;2023-04-03T02:56:33;6.07;;;3.10;;
78156;SDS011;67400;49.360;8.266;2023-04-03T02:57:53;5.75;;;3.80;;
78156;SDS011;67400;49.360;8.266;2023-04-03T02:59:13;5.90;;;3.55;;
78156;SDS011;67400;49.360;8.266;2023-04-03T03:00:34;6.15;;;3.40;;
78156;SDS011;67400;49.360;8.266;2023-04-03T03:01:53;5.97;;;3.78;;
78156;SDS011;67400;49.360;8.266;2023-04-03T03:03:14;6.93;;;3.40;;
78156;SDS011;67400;49.360;8.266;2023-04-03T03:04:34;5.30;;;3.67;;
78156;SDS011;67400;49.360;8.266;2023-04-03T03:06:06;6.43;;;3.63;;
78156;SDS011;67400;49.360;8.266;2023-04-03T03:07:26;6.68;;;3.38;;
78156;SDS011;67400;49.360;8.266;2023-04-03T03:08:45;5.45;;;3.28;;
78156;SDS011;67400;49.360;8.266;2023-04-03T03:10:05;6.07;;;3.45;;
78156;SDS011;67400;49.360;8.266;2023-04-03T03:11:25;4.97;;;3.38;;
78156;SDS011;67400;49.360;8.266;2023-04-03T03:12:45;6.13;;;3.60;;
78156;SDS011;67400;49.360;8.266;2023-04-03T03:14:05;6.50;;;3.72;;
78156;SDS011;67400;49.360;8.266;2023-04-03T03:15:25;5.85;;;3.95;;
78156;SDS011;67400;49.360;8.266;2023-04-03T03:16:45;6.00;;;3.65;;
78156;SDS011;67400;49.360;8.266;2023-04-03T03:18:04;6.80;;;3.97;;
78156;SDS011;67400;49.360;8.266;2023-04-03T03:19:24;5.82;;;3.50;;
78156;SDS011;67400;49.360;8.266;2023-04-03T03:20:44;6.03;;;3.58;;
78156;SDS011;67400;49.360;8.266;2023-04-03T03:22:04;5.30;;;3.58;;
78156;SDS011;67400;49.360;8.266;2023-04-03T03:23:24;4.57;;;3.25;;
78156;SDS011;67400;49.360;8.266;2023-04-03T03:24:44;4.65;;;3.20;;
78156;SDS011;67400;49.360;8.266;2023-04-03T03:26:05;4.25;;;3.38;;
78156;SDS011;67400;49.360;8.266;2023-04-03T03:27:26;5.18;;;3.00;;
78156;SDS011;67400;49.360;8.266;2023-04-03T03:28:46;7.53;;;3.95;;
78156;SDS011;67400;49.360;8.266;2023-04-03T03:30:07;4.30;;;3.47;;
78156;SDS011;67400;49.360;8.266;2023-04-03T03:31:26;6.15;;;3.30;;
78156;SDS011;67400;49.360;8.266;2023-04-03T03:32:46;9.00;;;3.65;;
78156;SDS011;67400;49.360;8.266;2023-04-03T03:34:06;5.30;;;3.20;;
78156;SDS011;67400;49.360;8.266;2023-04-03T03:35:26;7.00;;;3.75;;
78156;SDS011;67400;49.360;8.266;2023-04-03T03:36:45;6.50;;;3.58;;
78156;SDS011;67400;49.360;8.266;2023-04-03T03:38:05;7.53;;;3.55;;
78156;SDS011;67400;49.360;8.266;2023-04-03T03:39:25;5.07;;;3.53;;
78156;SDS011;67400;49.360;8.266;2023-04-03T03:40:49;9.02;;;3.72;;
78156;SDS011;67400;49.360;8.266;2023-04-03T03:42:11;8.45;;;3.78;;
78156;SDS011;67400;49.360;8.266;2023-04-03T03:43:30;9.38;;;4.05;;
78156;SDS011;67400;49.360;8.266;2023-04-03T03:44:50;5.72;;;3.58;;
78156;SDS011;67400;49.360;8.266;2023-04-03T03:46:12;5.28;;;3.50;;
78156;SDS011;67400;49.360;8.266;2023-04-03T03:47:32;9.20;;;3.58;;
78156;SDS011;67400;49.360;8.266;2023-04-03T03:48:51;6.10;;;3.38;;
78156;SDS011;67400;49.360;8.266;2023-04-03T03:50:11;4.82;;;3.70;;
78156;SDS011;67400;49.360;8.266;2023-04-03T03:51:31;5.97;;;3.83;;
78156;SDS011;67400;49.360;8.266;2023-04-03T03:52:51;8.93;;;3.90;;
78156;SDS011;67400;49.360;8.266;2023-04-03T03:54:10;5.82;;;3.60;;
78156;SDS011;67400;49.360;8.266;2023-04-03T03:55:30;7.95;;;3.72;;
78156;SDS011;67400;49.360;8.266;2023-04-03T03:56:50;7.35;;;3.30;;
78156;SDS011;67400;49.360;8.266;2023-04-03T03:58:10;7.13;;;3.75;;
78156;SDS011;67400;49.360;8.266;2023-04-03T03:59:30;6.28;;;3.47;;
78156;SDS011;67400;49.360;8.266;2023-04-03T04:00:50;7.28;;;3.22;;
78156;SDS011;67400;49.360;8.266;2023-04-03T04:02:10;7.43;;;3.50;;
78156;SDS011;67400;49.360;8.266;2023-04-03T04:03:30;6.95;;;3.70;;
78156;SDS011;67400;49.360;8.266;2023-04-03T04:04:49;6.45;;;3.50;;
78156;SDS011;67400;49.360;8.266;2023-04-03T04:06:09;6.50;;;3.80;;
78156;SDS011;67400;49.360;8.266;2023-04-03T04:07:29;5.25;;;3.45;;
78156;SDS011;67400;49.360;8.266;2023-04-03T04:08:49;6.90;;;3.53;;
78156;SDS011;67400;49.360;8.266;2023-04-03T04:10:09;6.20;;;3.10;;
78156;SDS011;67400;49.360;8.266;2023-04-03T04:11:29;5.15;;;2.92;;
78156;SDS011;67400;49.360;8.266;2023-04-03T04:12:49;8.13;;;3.15;;
78156;SDS011;67400;49.360;8.266;2023-04-03T04:14:12;6.70;;;3.72;;
78156;SDS011;67400;49.360;8.266;2023-04-03T04:15:33;5.63;;;3.72;;
78156;SDS011;67400;49.360;8.266;2023-04-03T04:16:52;5.45;;;3.22;;
78156;SDS011;67400;49.360;8.266;2023-04-03T04:18:16;6.65;;;3.40;;
78156;SDS011;67400;49.360;8.266;2023-04-03T04:19:39;6.25;;;3.38;;
78156;SDS011;67400;49.360;8.266;2023-04-03T04:20:59;9.38;;;4.00;;
78156;SDS011;67400;49.360;8.266;2023-04-03T04:22:19;6.30;;;3.08;;
78156;SDS011;67400;49.360;8.266;2023-04-03T04:23:39;7.05;;;3.47;;
78156;SDS011;67400;49.360;8.266;2023-04-03T04:24:59;10.90;;;3.80;;
78156;SDS011;67400;49.360;8.266;2023-04-03T04:26:19;5.40;;;3.15;;
78156;SDS011;67400;49.360;8.266;2023-04-03T04:27:39;8.45;;;3.75;;
78156;SDS011;67400;49.360;8.266;2023-04-03T04:29:00;7.35;;;4.00;;
78156;SDS011;67400;49.360;8.266;2023-04-03T04:30:20;7.90;;;3.70;;
78156;SDS011;67400;49.360;8.266;2023-04-03T04:31:42;5.28;;;3.25;;
78156;SDS011;67400;49.360;8.266;2023-04-03T04:33:02;4.93;;;3.60;;
78156;SDS011;67400;49.360;8.266;2023-04-03T04:34:22;7.82;;;3.78;;
78156;SDS011;67400;49.360;8.266;2023-04-03T04:35:42;5.88;;;3.30;;
78156;SDS011;67400;49.360;8.266;2023-04-03T04:37:02;9.63;;;3.60;;
78156;SDS011;67400;49.360;8.266;2023-04-03T04:38:23;8.13;;;3.60;;
78156;SDS011;67400;49.360;8.266;2023-04-03T04:39:45;6.88;;;3.75;;
78156;SDS011;67400;49.360;8.266;2023-04-03T04:41:05;7.32;;;3.60;;
78156;SDS011;67400;49.360;8.266;2023-04-03T04:42:25;5.80;;;3.22;;
78156;SDS011;67400;49.360;8.266;2023-04-03T04:43:44;8.05;;;4.13;;
78156;SDS011;67400;49.360;8.266;2023-04-03T04:45:04;4.43;;;3.35;;
78156;SDS011;67400;49.360;8.266;2023-04-03T04:46:24;4.10;;;2.85;;
78156;SDS011;67400;49.360;8.266;2023-04-03T04:47:48;7.10;;;3.55;;
78156;SDS011;67400;49.360;8.266;2023-04-03T04:49:10;8.73;;;3.80;;
78156;SDS011;67400;49.360;8.266;2023-04-03T04:50:30;5.47;;;3.40;;
78156;SDS011;67400;49.360;8.266;2023-04-03T04:51:50;9.55;;;3.60;;
78156;SDS011;67400;49.360;8.266;2023-04-03T04:53:10;4.95;;;3.92;;
78156;SDS011;67400;49.360;8.266;2023-04-03T04:54:30;7.97;;;3.10;;
78156;SDS011;67400;49.360;8.266;2023-04-03T04:55:51;7.00;;;3.72;;
78156;SDS011;67400;49.360;8.266;2023-04-03T04:57:11;7.47;;;3.80;;
78156;SDS011;67400;49.360;8.266;2023-04-03T04:58:31;5.10;;;3.38;;
78156;SDS011;67400;49.360;8.266;2023-04-03T04:59:51;5.32;;;3.50;;
78156;SDS011;67400;49.360;8.266;2023-04-03T05:01:11;7.15;;;4.10;;
78156;SDS011;67400;49.360;8.266;2023-04-03T05:02:47;7.97;;;3.70;;
78156;SDS011;67400;49.360;8.266;2023-04-03T05:04:07;8.32;;;4.20;;
78156;SDS011;67400;49.360;8.266;2023-04-03T05:05:27;5.32;;;3.63;;
78156;SDS011;67400;49.360;8.266;2023-04-03T05:06:47;11.02;;;4.00;;
78156;SDS011;67400;49.360;8.266;2023-04-03T05:08:12;10.88;;;4.82;;
78156;SDS011;67400;49.360;8.266;2023-04-03T05:09:34;5.85;;;3.30;;
78156;SDS011;67400;49.360;8.266;2023-04-03T05:10:54;9.82;;;4.65;;
78156;SDS011;67400;49.360;8.266;2023-04-03T05:12:13;5.18;;;3.80;;
78156;SDS011;67400;49.360;8.266;2023-04-03T05:13:40;6.60;;;4.18;;
78156;SDS011;67400;49.360;8.266;2023-04-03T05:15:00;7.50;;;3.92;;
78156;SDS011;67400;49.360;8.266;2023-04-03T05:16:21;5.75;;;3.70;;
78156;SDS011;67400;49.360;8.266;2023-04-03T05:17:41;5.45;;;3.45;;
78156;SDS011;67400;49.360;8.266;2023-04-03T05:19:04;6.93;;;3.38;;
78156;SDS011;67400;49.360;8.266;2023-04-03T05:20:24;8.90;;;3.83;;
78156;SDS011;67400;49.360;8.266;2023-04-03T05:21:45;8.30;;;3.75;;
78156;SDS011;67400;49.360;8.266;2023-04-03T05:23:07;9.23;;;4.18;;
78156;SDS011;67400;49.360;8.266;2023-04-03T05:24:28;7.00;;;3.60;;
78156;SDS011;67400;49.360;8.266;2023-04-03T05:25:47;6.70;;;3.55;;
78156;SDS011;67400;49.360;8.266;2023-04-03T05:27:07;5.07;;;3.90;;
78156;SDS011;67400;49.360;8.266;2023-04-03T05:28:31;8.85;;;3.80;;
78156;SDS011;67400;49.360;8.266;2023-04-03T05:29:52;4.70;;;3.30;;
78156;SDS011;67400;49.360;8.266;2023-04-03T05:31:14;6.88;;;3.33;;
78156;SDS011;67400;49.360;8.266;2023-04-03T05:32:34;7.43;;;3.80;;
78156;SDS011;67400;49.360;8.266;2023-04-03T05:34:20;6.20;;;3.65;;
78156;SDS011;67400;49.360;8.266;2023-04-03T05:35:43;8.20;;;3.47;;
78156;SDS011;67400;49.360;8.266;2023-04-03T05:37:09;4.68;;;3.30;;
78156;SDS011;67400;49.360;8.266;2023-04-03T05:38:28;11.75;;;3.50;;
78156;SDS011;67400;49.360;8.266;2023-04-03T05:39:49;4.75;;;3.30;;
78156;SDS011;67400;49.360;8.266;2023-04-03T05:41:08;7.15;;;3.60;;
78156;SDS011;67400;49.360;8.266;2023-04-03T05:42:28;8.93;;;4.47;;
78156;SDS011;67400;49.360;8.266;2023-04-03T05:43:48;7.18;;;3.70;;
78156;SDS011;67400;49.360;8.266;2023-04-03T05:45:09;5.35;;;3.60;;
78156;SDS011;67400;49.360;8.266;2023-04-03T05:46:29;7.68;;;3.75;;
78156;SDS011;67400;49.360;8.266;2023-04-03T05:47:51;6.88;;;4.10;;
78156;SDS011;67400;49.360;8.266;2023-04-03T05:49:10;5.90;;;3.45;;
78156;SDS011;67400;49.360;8.266;2023-04-03T05:50:30;5.00;;;3.33;;
78156;SDS011;67400;49.360;8.266;2023-04-03T05:51:50;5.80;;;3.50;;
78156;SDS011;67400;49.360;8.266;2023-04-03T05:53:27;6.53;;;3.58;;
78156;SDS011;67400;49.360;8.266;2023-04-03T05:54:50;7.60;;;3.85;;
78156;SDS011;67400;49.360;8.266;2023-04-03T05:56:15;9.70;;;3.90;;
78156;SDS011;67400;49.360;8.266;2023-04-03T05:57:36;8.82;;;4.25;;
78156;SDS011;67400;49.360;8.266;2023-04-03T05:58:56;9.10;;;4.07;;
78156;SDS011;67400;49.360;8.266;2023-04-03T06:00:16;7.50;;;4.65;;
78156;SDS011;67400;49.360;8.266;2023-04-03T06:01:45;7.28;;;4.07;;
78156;SDS011;67400;49.360;8.266;2023-04-03T06:03:05;6.07;;;3.70;;
78156;SDS011;67400;49.360;8.266;2023-04-03T06:04:25;7.57;;;3.42;;
78156;SDS011;67400;49.360;8.266;2023-04-03T06:05:46;7.05;;;3.55;;
78156;SDS011;67400;49.360;8.266;2023-04-03T06:07:06;6.47;;;3.70;;
78156;SDS011;67400;49.360;8.266;2023-04-03T06:08:26;5.55;;;3.45;;
78156;SDS011;67400;49.360;8.266;2023-04-03T06:09:45;7.05;;;3.50;;
78156;SDS011;67400;49.360;8.266;2023-04-03T06:11:05;10.23;;;3.60;;
78156;SDS011;67400;49.360;8.266;2023-04-03T06:12:27;4.75;;;3.58;;
78156;SDS011;67400;49.360;8.266;2023-04-03T06:13:49;5.35;;;3.60;;
78156;SDS011;67400;49.360;8.266;2023-04-03T06:15:10;7.28;;;3.58;;
78156;SDS011;67400;49.360;8.266;2023-04-03T06:16:32;7.18;;;4.00;;
78156;SDS011;67400;49.360;8.266;2023-04-03T06:17:52;5.65;;;3.65;;
78156;SDS011;67400;49.360;8.266;2023-04-03T06:19:12;5.78;;;3.92;;
78156;SDS011;67400;49.360;8.266;2023-04-03T06:20:37;8.48;;;3.20;;
78156;SDS011;67400;49.360;8.266;2023-04-03T06:21:57;6.75;;;3.22;;
78156;SDS011;67400;49.360;8.266;2023-04-03T06:23:17;5.35;;;3.33;;
78156;SDS011;67400;49.360;8.266;2023-04-03T06:24:36;8.93;;;3.92;;
78156;SDS011;67400;49.360;8.266;2023-04-03T06:25:56;4.90;;;3.40;;
78156;SDS011;67400;49.360;8.266;2023-04-03T06:27:17;8.85;;;3.97;;
78156;SDS011;67400;49.360;8.266;2023-04-03T06:28:36;5.80;;;3.20;;
78156;SDS011;67400;49.360;8.266;2023-04-03T06:29:56;8.60;;;3.38;;
78156;SDS011;67400;49.360;8.266;2023-04-03T06:31:15;4.47;;;3.10;;
78156;SDS011;67400;49.360;8.266;2023-04-03T06:32:35;5.72;;;3.30;;
78156;SDS011;67400;49.360;8.266;2023-04-03T06:33:55;10.50;;;3.30;;
78156;SDS011;67400;49.360;8.266;2023-04-03T06:35:14;6.72;;;3.65;;
78156;SDS011;67400;49.360;8.266;2023-04-03T06:36:35;5.07;;;3.10;;
78156;SDS011;67400;49.360;8.266;2023-04-03T06:37:54;6.47;;;3.72;;
78156;SDS011;67400;49.360;8.266;2023-04-03T06:39:15;5.30;;;3.33;;
78156;SDS011;67400;49.360;8.266;2023-04-03T06:40:35;7.10;;;3.50;;
78156;SDS011;67400;49.360;8.266;2023-04-03T06:41:55;7.78;;;3.28;;
78156;SDS011;67400;49.360;8.266;2023-04-03T06:43:29;6.80;;;3.28;;
78156;SDS011;67400;49.360;8.266;2023-04-03T06:44:52;7.32;;;3.17;;
78156;SDS011;67400;49.360;8.266;2023-04-03T06:46:13;5.70;;;2.92;;
78156;SDS011;67400;49.360;8.266;2023-04-03T06:47:34;6.45;;;2.95;;
78156;SDS011;67400;49.360;8.266;2023-04-03T06:48:53;7.40;;;2.70;;
78156;SDS011;67400;49.360;8.266;2023-04-03T06:50:13;6.72;;;3.20;;
78156;SDS011;67400;49.360;8.266;2023-04-03T06:51:34;5.97;;;3.17;;
78156;SDS011;67400;49.360;8.266;2023-04-03T06:52:54;7.05;;;2.85;;
78156;SDS011;67400;49.360;8.266;2023-04-03T06:54:13;5.95;;;2.47;;
78156;SDS011;67400;49.360;8.266;2023-04-03T06:55:34;4.93;;;2.60;;
78156;SDS011;67400;49.360;8.266;2023-04-03T06:56:54;4.97;;;2.58;;
78156;SDS011;67400;49.360;8.266;2023-04-03T06:58:13;5.30;;;3.00;;
78156;SDS011;67400;49.360;8.266;2023-04-03T06:59:34;5.80;;;2.45;;
78156;SDS011;67400;49.360;8.266;2023-04-03T07:00:55;3.53;;;2.70;;
78156;SDS011;67400;49.360;8.266;2023-04-03T07:02:14;7.85;;;2.85;;
78156;SDS011;67400;49.360;8.266;2023-04-03T07:03:34;7.10;;;2.63;;
78156;SDS011;67400;49.360;8.266;2023-04-03T07:04:55;4.63;;;2.63;;
78156;SDS011;67400;49.360;8.266;2023-04-03T07:06:15;7.75;;;2.60;;
78156;SDS011;67400;49.360;8.266;2023-04-03T07:07:35;6.57;;;3.05;;
78156;SDS011;67400;49.360;8.266;2023-04-03T07:08:56;4.70;;;2.70;;
78156;SDS011;67400;49.360;8.266;2023-04-03T07:10:15;9.60;;;3.03;;
78156;SDS011;67400;49.360;8.266;2023-04-03T07:11:35;5.75;;;3.00;;
78156;SDS011;67400;49.360;8.266;2023-04-03T07:12:55;6.30;;;2.80;;
78156;SDS011;67400;49.360;8.266;2023-04-03T07:14:15;4.50;;;3.00;;
78156;SDS011;67400;49.360;8.266;2023-04-03T07:15:35;6.78;;;3.03;;
78156;SDS011;67400;49.360;8.266;2023-04-03T07:16:55;4.45;;;3.08;;
78156;SDS011;67400;49.360;8.266;2023-04-03T07:18:10;5.85;;;2.67;;
78156;SDS011;67400;49.360;8.266;2023-04-03T07:19:30;4.18;;;2.50;;
78156;SDS011;67400;49.360;8.266;2023-04-03T07:20:50;4.47;;;2.53;;
78156;SDS011;67400;49.360;8.266;2023-04-03T07:22:09;4.57;;;2.45;;
78156;SDS011;67400;49.360;8.266;2023-04-03T07:23:29;4.35;;;2.70;;
78156;SDS011;67400;49.360;8.266;2023-04-03T07:24:49;3.50;;;2.47;;
78156;SDS011;67400;49.360;8.266;2023-04-03T07:26:09;4.25;;;2.40;;
78156;SDS011;67400;49.360;8.266;2023-04-03T07:27:28;3.20;;;2.40;;
78156;SDS011;67400;49.360;8.266;2023-04-03T07:28:48;6.68;;;3.15;;
78156;SDS011;67400;49.360;8.266;2023-04-03T07:30:08;5.60;;;2.95;;
78156;SDS011;67400;49.360;8.266;2023-04-03T07:31:28;4.55;;;2.92;;
78156;SDS011;67400;49.360;8.266;2023-04-03T07:32:48;4.25;;;2.72;;
78156;SDS011;67400;49.360;8.266;2023-04-03T07:34:08;5.95;;;2.97;;
78156;SDS011;67400;49.360;8.266;2023-04-03T07:35:27;6.57;;;3.13;;
78156;SDS011;67400;49.360;8.266;2023-04-03T07:36:47;5.13;;;2.58;;
78156;SDS011;67400;49.360;8.266;2023-04-03T07:38:06;3.10;;;2.35;;
78156;SDS011;67400;49.360;8.266;2023-04-03T07:39:26;4.57;;;2.97;;
78156;SDS011;67400;49.360;8.266;2023-04-03T07:40:46;6.50;;;2.25;;
78156;SDS011;67400;49.360;8.266;2023-04-03T07:42:06;4.88;;;2.58;;
78156;SDS011;67400;49.360;8.266;2023-04-03T07:43:26;7.57;;;2.95;;
78156;SDS011;67400;49.360;8.266;2023-04-03T07:44:45;5.50;;;2.72;;
78156;SDS011;67400;49.360;8.266;2023-04-03T07:46:06;4.10;;;2.00;;
78156;SDS011;67400;49.360;8.266;2023-04-03T07:47:25;5.25;;;3.03;;
78156;SDS011;67400;49.360;8.266;2023-04-03T07:48:45;5.55;;;2.92;;
78156;SDS011;67400;49.360;8.266;2023-04-03T07:50:05;3.67;;;2.50;;
78156;SDS011;67400;49.360;8.266;2023-04-03T07:51:25;5.22;;;2.67;;
78156;SDS011;67400;49.360;8.266;2023-04-03T07:52:45;5.20;;;2.60;;
78156;SDS011;67400;49.360;8.266;2023-04-03T07:54:04;3.75;;;2.10;;
78156;SDS011;67400;49.360;8.266;2023-04-03T07:55:25;5.45;;;2.60;;
78156;SDS011;67400;49.360;8.266;2023-04-03T07:56:44;3.80;;;2.78;;
78156;SDS011;67400;49.360;8.266;2023-04-03T07:58:04;4.10;;;2.30;;
78156;SDS011;67400;49.360;8.266;2023-04-03T07:59:23;5.20;;;3.20;;
78156;SDS011;67400;49.360;8.266;2023-04-03T08:00:43;5.45;;;3.03;;
78156;SDS011;67400;49.360;8.266;2023-04-03T08:02:03;6.85;;;3.25;;
78156;SDS011;67400;49.360;8.266;2023-04-03T08:03:23;3.33;;;2.70;;
78156;SDS011;67400;49.360;8.266;2023-04-03T08:04:42;8.25;;;3.38;;
78156;SDS011;67400;49.360;8.266;2023-04-03T08:06:06;4.20;;;2.88;;
78156;SDS011;67400;49.360;8.266;2023-04-03T08:07:29;3.78;;;2.22;;